sensor_id;sensor_type;location;lat;lon;timestamp;temperature;humidity
9762;DHT22;4920;49.594;11.022;2023-02-11T00:01:48;-3.30;99.90
9762;DHT22;4920;49.594;11.022;2023-02-11T00:04:17;-3.20;99.90
9762;DHT22;4920;49.594;11.022;2023-02-11T00:06:46;-3.10;99.90
9762;DHT22;4920;49.594;11.022;2023-02-11T00:09:14;-3.10;99.90
9762;DHT22;4920;49.594;11.022;2023-02-11T00:11:43;-3.10;99.90
9762;DHT22;4920;49.594;11.022;2023-02-11T00:14:14;-3.20;99.90
9762;DHT22;4920;49.594;11.022;2023-02-11T00:16:45;-3.20;99.90
9762;DHT22;4920;49.594;11.022;2023-02-11T00:19:14;-3.20;99.90
9762;DHT22;4920;49.594;11.022;2023-02-11T00:21:43;-3.20;99.90
9762;DHT22;4920;49.594;11.022;2023-02-11T00:24:12;-3.20;99.90
9762;DHT22;4920;49.594;11.022;2023-02-11T00:26:41;-3.30;99.90
9762;DHT22;4920;49.594;11.022;2023-02-11T00:29:12;-3.20;99.90
9762;DHT22;4920;49.594;11.022;2023-02-11T00:35:22;-3.20;99.90
9762;DHT22;4920;49.594;11.022;2023-02-11T00:37:52;-3.10;99.90
9762;DHT22;4920;49.594;11.022;2023-02-11T00:40:21;-3.10;99.90
9762;DHT22;4920;49.594;11.022;2023-02-11T00:42:50;-3.10;99.90
9762;DHT22;4920;49.594;11.022;2023-02-11T00:45:20;-3.10;99.90
9762;DHT22;4920;49.594;11.022;2023-02-11T00:47:49;-3.10;99.90
9762;DHT22;4920;49.594;11.022;2023-02-11T00:50:18;-3.00;99.90
9762;DHT22;4920;49.594;11.022;2023-02-11T00:52:47;-3.00;99.90
9762;DHT22;4920;49.594;11.022;2023-02-11T00:55:16;-3.00;99.90
9762;DHT22;4920;49.594;11.022;2023-02-11T00:57:45;-2.90;99.90
9762;DHT22;4920;49.594;11.022;2023-02-11T01:00:16;-2.90;99.90
9762;DHT22;4920;49.594;11.022;2023-02-11T01:02:46;-2.90;99.90
9762;DHT22;4920;49.594;11.022;2023-02-11T01:05:15;-2.80;99.90
9762;DHT22;4920;49.594;11.022;2023-02-11T01:07:45;-2.80;99.90
9762;DHT22;4920;49.594;11.022;2023-02-11T01:10:15;-2.80;99.90
9762;DHT22;4920;49.594;11.022;2023-02-11T01:12:45;-2.80;99.90
9762;DHT22;4920;49.594;11.022;2023-02-11T01:15:16;-2.80;99.90
9762;DHT22;4920;49.594;11.022;2023-02-11T01:17:47;-2.80;99.90
9762;DHT22;4920;49.594;11.022;2023-02-11T01:20:21;-2.80;99.90
9762;DHT22;4920;49.594;11.022;2023-02-11T01:22:50;-2.70;99.90
9762;DHT22;4920;49.594;11.022;2023-02-11T01:25:19;-2.70;99.90
9762;DHT22;4920;49.594;11.022;2023-02-11T01:27:48;-2.60;99.90
9762;DHT22;4920;49.594;11.022;2023-02-11T01:30:17;-2.70;99.90
9762;DHT22;4920;49.594;11.022;2023-02-11T01:32:48;-2.60;99.90
9762;DHT22;4920;49.594;11.022;2023-02-11T01:35:16;-2.70;99.90
9762;DHT22;4920;49.594;11.022;2023-02-11T01:37:45;-2.70;99.90
9762;DHT22;4920;49.594;11.022;2023-02-11T01:40:16;-2.70;99.90
9762;DHT22;4920;49.594;11.022;2023-02-11T01:42:45;-2.70;99.90
9762;DHT22;4920;49.594;11.022;2023-02-11T01:45:41;-2.70;99.90
9762;DHT22;4920;49.594;11.022;2023-02-11T01:48:25;-2.70;99.90
9762;DHT22;4920;49.594;11.022;2023-02-11T01:51:00;-2.70;99.90
9762;DHT22;4920;49.594;11.022;2023-02-11T01:53:31;-2.80;99.90
9762;DHT22;4920;49.594;11.022;2023-02-11T01:56:19;-2.70;99.90
9762;DHT22;4920;49.594;11.022;2023-02-11T01:59:10;-2.70;99.90
9762;DHT22;4920;49.594;11.022;2023-02-11T02:01:49;-2.70;99.90
9762;DHT22;4920;49.594;11.022;2023-02-11T02:04:22;-2.70;99.90
9762;DHT22;4920;49.594;11.022;2023-02-11T02:07:00;-2.70;99.90
9762;DHT22;4920;49.594;11.022;2023-02-11T02:09:36;-2.80;99.90
9762;DHT22;4920;49.594;11.022;2023-02-11T02:12:07;-2.70;99.90
9762;DHT22;4920;49.594;11.022;2023-02-11T02:14:38;-2.80;99.90
9762;DHT22;4920;49.594;11.022;2023-02-11T02:17:23;-2.70;99.90
9762;DHT22;4920;49.594;11.022;2023-02-11T02:20:25;-2.70;99.90
9762;DHT22;4920;49.594;11.022;2023-02-11T02:23:14;-2.70;99.90
9762;DHT22;4920;49.594;11.022;2023-02-11T02:29:34;-2.60;99.90
9762;DHT22;4920;49.594;11.022;2023-02-11T02:32:43;-2.60;99.90
9762;DHT22;4920;49.594;11.022;2023-02-11T02:35:23;-2.60;99.90
9762;DHT22;4920;49.594;11.022;2023-02-11T02:37:58;-2.60;99.90
9762;DHT22;4920;49.594;11.022;2023-02-11T02:40:32;-2.50;99.90
9762;DHT22;4920;49.594;11.022;2023-02-11T02:43:02;-2.50;99.90
9762;DHT22;4920;49.594;11.022;2023-02-11T02:45:32;-2.40;99.90
9762;DHT22;4920;49.594;11.022;2023-02-11T02:48:03;-2.40;99.90
9762;DHT22;4920;49.594;11.022;2023-02-11T02:50:34;-2.30;99.90
9762;DHT22;4920;49.594;11.022;2023-02-11T02:53:14;-2.20;99.90
9762;DHT22;4920;49.594;11.022;2023-02-11T02:55:59;-2.10;99.90
9762;DHT22;4920;49.594;11.022;2023-02-11T02:58:52;-2.00;99.90
9762;DHT22;4920;49.594;11.022;2023-02-11T03:01:28;-2.00;99.90
9762;DHT22;4920;49.594;11.022;2023-02-11T03:04:10;-2.00;99.90
9762;DHT22;4920;49.594;11.022;2023-02-11T03:06:47;-1.90;99.90
9762;DHT22;4920;49.594;11.022;2023-02-11T03:09:20;-1.90;99.90
9762;DHT22;4920;49.594;11.022;2023-02-11T03:11:52;-1.80;99.90
9762;DHT22;4920;49.594;11.022;2023-02-11T03:14:23;-1.80;99.90
9762;DHT22;4920;49.594;11.022;2023-02-11T03:16:55;-1.70;99.90
9762;DHT22;4920;49.594;11.022;2023-02-11T03:19:29;-1.60;99.90
9762;DHT22;4920;49.594;11.022;2023-02-11T03:22:02;-1.50;99.90
9762;DHT22;4920;49.594;11.022;2023-02-11T03:24:35;-1.40;99.90
9762;DHT22;4920;49.594;11.022;2023-02-11T03:27:09;-1.30;99.90
9762;DHT22;4920;49.594;11.022;2023-02-11T03:29:44;-1.30;99.90
9762;DHT22;4920;49.594;11.022;2023-02-11T03:32:19;-1.20;99.90
9762;DHT22;4920;49.594;11.022;2023-02-11T03:34:54;-1.10;99.90
9762;DHT22;4920;49.594;11.022;2023-02-11T03:37:27;-1.10;99.90
9762;DHT22;4920;49.594;11.022;2023-02-11T03:40:00;-1.00;99.90
9762;DHT22;4920;49.594;11.022;2023-02-11T03:42:33;-1.00;99.90
9762;DHT22;4920;49.594;11.022;2023-02-11T03:45:07;-0.90;99.90
9762;DHT22;4920;49.594;11.022;2023-02-11T03:47:39;-0.90;99.90
9762;DHT22;4920;49.594;11.022;2023-02-11T03:50:12;-0.90;99.90
9762;DHT22;4920;49.594;11.022;2023-02-11T03:52:42;-0.90;99.90
9762;DHT22;4920;49.594;11.022;2023-02-11T03:55:16;-0.90;99.90
9762;DHT22;4920;49.594;11.022;2023-02-11T03:57:46;-1.00;99.90
9762;DHT22;4920;49.594;11.022;2023-02-11T04:00:15;-1.00;99.90
9762;DHT22;4920;49.594;11.022;2023-02-11T04:02:44;-1.00;99.90
9762;DHT22;4920;49.594;11.022;2023-02-11T04:05:15;-1.00;99.90
9762;DHT22;4920;49.594;11.022;2023-02-11T04:07:44;-1.00;99.90
9762;DHT22;4920;49.594;11.022;2023-02-11T04:10:13;-0.90;99.90
9762;DHT22;4920;49.594;11.022;2023-02-11T04:12:42;-0.90;99.90
9762;DHT22;4920;49.594;11.022;2023-02-11T04:15:10;-0.90;99.90
9762;DHT22;4920;49.594;11.022;2023-02-11T04:17:40;-0.80;99.90
9762;DHT22;4920;49.594;11.022;2023-02-11T04:20:10;-0.80;99.90
9762;DHT22;4920;49.594;11.022;2023-02-11T04:22:40;-0.80;99.90
9762;DHT22;4920;49.594;11.022;2023-02-11T04:25:09;-0.80;99.90
9762;DHT22;4920;49.594;11.022;2023-02-11T04:30:57;-0.80;99.90
9762;DHT22;4920;49.594;11.022;2023-02-11T04:33:26;-0.80;99.90
9762;DHT22;4920;49.594;11.022;2023-02-11T04:35:55;-0.70;99.90
9762;DHT22;4920;49.594;11.022;2023-02-11T04:38:25;-0.70;99.90
9762;DHT22;4920;49.594;11.022;2023-02-11T04:40:54;-0.70;99.90
9762;DHT22;4920;49.594;11.022;2023-02-11T04:43:23;-0.70;99.90
9762;DHT22;4920;49.594;11.022;2023-02-11T04:45:55;-0.70;99.90
9762;DHT22;4920;49.594;11.022;2023-02-11T04:48:24;-0.70;99.90
9762;DHT22;4920;49.594;11.022;2023-02-11T04:50:53;-0.70;99.90
9762;DHT22;4920;49.594;11.022;2023-02-11T04:53:22;-0.70;99.90
9762;DHT22;4920;49.594;11.022;2023-02-11T04:55:53;-0.70;99.90
9762;DHT22;4920;49.594;11.022;2023-02-11T04:58:22;-0.80;99.90
9762;DHT22;4920;49.594;11.022;2023-02-11T05:00:52;-0.80;99.90
9762;DHT22;4920;49.594;11.022;2023-02-11T05:03:21;-0.80;99.90
9762;DHT22;4920;49.594;11.022;2023-02-11T05:05:50;-0.70;99.90
9762;DHT22;4920;49.594;11.022;2023-02-11T05:08:19;-0.70;99.90
9762;DHT22;4920;49.594;11.022;2023-02-11T05:10:49;-0.60;99.90
9762;DHT22;4920;49.594;11.022;2023-02-11T05:13:19;-0.60;99.90
9762;DHT22;4920;49.594;11.022;2023-02-11T05:15:48;-0.50;99.90
9762;DHT22;4920;49.594;11.022;2023-02-11T05:18:17;-0.40;99.90
9762;DHT22;4920;49.594;11.022;2023-02-11T05:20:46;-0.40;99.90
9762;DHT22;4920;49.594;11.022;2023-02-11T05:23:15;-0.30;99.90
9762;DHT22;4920;49.594;11.022;2023-02-11T05:25:44;-0.20;99.90
9762;DHT22;4920;49.594;11.022;2023-02-11T05:28:13;-0.10;99.90
9762;DHT22;4920;49.594;11.022;2023-02-11T05:30:43;-0.10;99.90
9762;DHT22;4920;49.594;11.022;2023-02-11T05:33:12;0.10;99.90
9762;DHT22;4920;49.594;11.022;2023-02-11T05:35:41;0.10;99.90
9762;DHT22;4920;49.594;11.022;2023-02-11T05:38:10;0.10;99.90
9762;DHT22;4920;49.594;11.022;2023-02-11T05:40:39;0.10;99.90
9762;DHT22;4920;49.594;11.022;2023-02-11T05:43:08;0.10;99.90
9762;DHT22;4920;49.594;11.022;2023-02-11T05:45:37;0.00;99.90
9762;DHT22;4920;49.594;11.022;2023-02-11T05:48:07;-0.10;99.90
9762;DHT22;4920;49.594;11.022;2023-02-11T05:50:36;-0.20;99.90
9762;DHT22;4920;49.594;11.022;2023-02-11T05:53:05;-0.30;99.90
9762;DHT22;4920;49.594;11.022;2023-02-11T05:55:34;-0.50;99.90
9762;DHT22;4920;49.594;11.022;2023-02-11T05:58:03;-0.60;99.90
9762;DHT22;4920;49.594;11.022;2023-02-11T06:00:32;-0.70;99.90
9762;DHT22;4920;49.594;11.022;2023-02-11T06:03:01;-0.80;99.90
9762;DHT22;4920;49.594;11.022;2023-02-11T06:05:32;-0.90;99.90
9762;DHT22;4920;49.594;11.022;2023-02-11T06:08:01;-0.90;99.90
9762;DHT22;4920;49.594;11.022;2023-02-11T06:10:30;-0.90;99.90
9762;DHT22;4920;49.594;11.022;2023-02-11T06:12:58;-1.00;99.90
9762;DHT22;4920;49.594;11.022;2023-02-11T06:15:28;-1.00;99.90
9762;DHT22;4920;49.594;11.022;2023-02-11T06:17:57;-1.10;99.90
9762;DHT22;4920;49.594;11.022;2023-02-11T06:20:25;-1.10;99.90
9762;DHT22;4920;49.594;11.022;2023-02-11T06:22:56;-1.10;99.90
9762;DHT22;4920;49.594;11.022;2023-02-11T06:25:24;-1.10;99.90
9762;DHT22;4920;49.594;11.022;2023-02-11T06:27:53;-1.20;99.90
9762;DHT22;4920;49.594;11.022;2023-02-11T06:30:22;-1.20;99.90
9762;DHT22;4920;49.594;11.022;2023-02-11T06:32:51;-1.30;99.90
9762;DHT22;4920;49.594;11.022;2023-02-11T06:35:21;-1.30;99.90
9762;DHT22;4920;49.594;11.022;2023-02-11T06:37:49;-1.30;99.90
9762;DHT22;4920;49.594;11.022;2023-02-11T06:40:21;-1.30;99.90
9762;DHT22;4920;49.594;11.022;2023-02-11T06:42:50;-1.40;99.90
9762;DHT22;4920;49.594;11.022;2023-02-11T06:45:19;-1.30;99.90
9762;DHT22;4920;49.594;11.022;2023-02-11T06:47:50;-1.30;99.90
9762;DHT22;4920;49.594;11.022;2023-02-11T06:50:19;-1.20;99.90
9762;DHT22;4920;49.594;11.022;2023-02-11T06:52:48;-1.10;99.90
9762;DHT22;4920;49.594;11.022;2023-02-11T06:55:17;-1.00;99.90
9762;DHT22;4920;49.594;11.022;2023-02-11T06:57:47;-0.90;99.90
9762;DHT22;4920;49.594;11.022;2023-02-11T07:00:18;-0.90;99.90
9762;DHT22;4920;49.594;11.022;2023-02-11T07:02:46;-1.00;99.90
9762;DHT22;4920;49.594;11.022;2023-02-11T07:05:15;-0.90;99.90
9762;DHT22;4920;49.594;11.022;2023-02-11T07:07:44;-0.90;99.90
9762;DHT22;4920;49.594;11.022;2023-02-11T07:10:13;-0.80;99.90
9762;DHT22;4920;49.594;11.022;2023-02-11T07:12:42;-0.80;99.90
9762;DHT22;4920;49.594;11.022;2023-02-11T07:15:12;-0.70;99.90
9762;DHT22;4920;49.594;11.022;2023-02-11T07:17:41;-0.50;99.90
9762;DHT22;4920;49.594;11.022;2023-02-11T07:20:10;-0.30;99.90
9762;DHT22;4920;49.594;11.022;2023-02-11T07:22:40;-0.10;99.90
9762;DHT22;4920;49.594;11.022;2023-02-11T07:25:09;0.10;99.90
9762;DHT22;4920;49.594;11.022;2023-02-11T07:27:38;0.20;99.90
9762;DHT22;4920;49.594;11.022;2023-02-11T07:30:08;0.40;99.90
9762;DHT22;4920;49.594;11.022;2023-02-11T07:32:38;0.60;99.90
9762;DHT22;4920;49.594;11.022;2023-02-11T07:35:07;0.80;99.90
9762;DHT22;4920;49.594;11.022;2023-02-11T07:37:36;0.80;99.90
9762;DHT22;4920;49.594;11.022;2023-02-11T07:40:05;1.00;99.90
9762;DHT22;4920;49.594;11.022;2023-02-11T07:42:34;1.20;99.90
9762;DHT22;4920;49.594;11.022;2023-02-11T07:45:03;1.30;99.90
9762;DHT22;4920;49.594;11.022;2023-02-11T07:47:33;1.40;99.90
9762;DHT22;4920;49.594;11.022;2023-02-11T07:50:03;1.50;99.90
9762;DHT22;4920;49.594;11.022;2023-02-11T07:52:34;1.60;99.90
9762;DHT22;4920;49.594;11.022;2023-02-11T07:55:03;1.60;99.90
9762;DHT22;4920;49.594;11.022;2023-02-11T07:57:32;1.50;99.90
9762;DHT22;4920;49.594;11.022;2023-02-11T08:00:01;1.50;99.90
9762;DHT22;4920;49.594;11.022;2023-02-11T08:02:38;1.60;99.90
9762;DHT22;4920;49.594;11.022;2023-02-11T08:05:08;1.70;99.90
9762;DHT22;4920;49.594;11.022;2023-02-11T08:07:37;1.90;99.90
9762;DHT22;4920;49.594;11.022;2023-02-11T08:10:06;2.00;99.90
9762;DHT22;4920;49.594;11.022;2023-02-11T08:15:57;2.20;99.90
9762;DHT22;4920;49.594;11.022;2023-02-11T08:18:25;2.20;99.90
9762;DHT22;4920;49.594;11.022;2023-02-11T08:21:05;2.30;99.90
9762;DHT22;4920;49.594;11.022;2023-02-11T08:23:35;2.50;99.90
9762;DHT22;4920;49.594;11.022;2023-02-11T08:26:05;2.60;99.90
9762;DHT22;4920;49.594;11.022;2023-02-11T08:28:35;2.70;99.90
9762;DHT22;4920;49.594;11.022;2023-02-11T08:31:32;2.90;99.90
9762;DHT22;4920;49.594;11.022;2023-02-11T08:34:14;3.00;99.90
9762;DHT22;4920;49.594;11.022;2023-02-11T08:36:50;3.10;99.90
9762;DHT22;4920;49.594;11.022;2023-02-11T08:39:20;3.20;99.90
9762;DHT22;4920;49.594;11.022;2023-02-11T08:41:51;3.30;99.90
9762;DHT22;4920;49.594;11.022;2023-02-11T08:44:21;3.50;99.90
9762;DHT22;4920;49.594;11.022;2023-02-11T08:46:54;3.60;99.90
9762;DHT22;4920;49.594;11.022;2023-02-11T08:49:23;3.80;99.90
9762;DHT22;4920;49.594;11.022;2023-02-11T08:51:54;4.00;99.90
9762;DHT22;4920;49.594;11.022;2023-02-11T08:54:25;4.20;99.90
9762;DHT22;4920;49.594;11.022;2023-02-11T08:56:54;4.30;99.90
9762;DHT22;4920;49.594;11.022;2023-02-11T08:59:23;4.30;99.90
9762;DHT22;4920;49.594;11.022;2023-02-11T09:01:52;4.40;99.90
9762;DHT22;4920;49.594;11.022;2023-02-11T09:04:22;4.50;99.90
9762;DHT22;4920;49.594;11.022;2023-02-11T09:06:52;4.60;99.90
9762;DHT22;4920;49.594;11.022;2023-02-11T09:09:21;4.80;99.90
9762;DHT22;4920;49.594;11.022;2023-02-11T09:11:50;5.00;99.90
9762;DHT22;4920;49.594;11.022;2023-02-11T09:14:23;5.30;99.90
9762;DHT22;4920;49.594;11.022;2023-02-11T09:16:52;5.40;99.90
9762;DHT22;4920;49.594;11.022;2023-02-11T09:19:21;5.60;99.90
9762;DHT22;4920;49.594;11.022;2023-02-11T09:21:50;5.70;99.90
9762;DHT22;4920;49.594;11.022;2023-02-11T09:24:20;5.90;99.90
9762;DHT22;4920;49.594;11.022;2023-02-11T09:26:49;6.10;99.90
9762;DHT22;4920;49.594;11.022;2023-02-11T09:29:18;6.30;99.90
9762;DHT22;4920;49.594;11.022;2023-02-11T09:31:47;6.40;99.90
9762;DHT22;4920;49.594;11.022;2023-02-11T09:34:16;6.60;99.90
9762;DHT22;4920;49.594;11.022;2023-02-11T09:36:44;6.90;99.90
9762;DHT22;4920;49.594;11.022;2023-02-11T09:39:16;7.20;99.90
9762;DHT22;4920;49.594;11.022;2023-02-11T09:41:58;7.40;99.90
9762;DHT22;4920;49.594;11.022;2023-02-11T09:44:32;7.40;99.90
9762;DHT22;4920;49.594;11.022;2023-02-11T09:47:04;7.40;99.90
9762;DHT22;4920;49.594;11.022;2023-02-11T09:49:38;7.30;99.90
9762;DHT22;4920;49.594;11.022;2023-02-11T09:52:17;7.30;99.90
9762;DHT22;4920;49.594;11.022;2023-02-11T09:54:53;7.30;99.90
9762;DHT22;4920;49.594;11.022;2023-02-11T09:57:27;7.30;99.90
9762;DHT22;4920;49.594;11.022;2023-02-11T09:59:59;7.50;99.90
9762;DHT22;4920;49.594;11.022;2023-02-11T10:02:44;7.60;99.90
9762;DHT22;4920;49.594;11.022;2023-02-11T10:05:33;7.70;99.90
9762;DHT22;4920;49.594;11.022;2023-02-11T10:08:10;7.80;99.90
9762;DHT22;4920;49.594;11.022;2023-02-11T10:10:49;7.90;99.90
9762;DHT22;4920;49.594;11.022;2023-02-11T10:13:37;7.90;99.90
9762;DHT22;4920;49.594;11.022;2023-02-11T10:16:23;8.10;99.90
9762;DHT22;4920;49.594;11.022;2023-02-11T10:19:12;8.30;99.90
9762;DHT22;4920;49.594;11.022;2023-02-11T10:21:52;8.50;99.90
9762;DHT22;4920;49.594;11.022;2023-02-11T10:24:23;8.80;99.90
9762;DHT22;4920;49.594;11.022;2023-02-11T10:26:54;9.00;99.90
9762;DHT22;4920;49.594;11.022;2023-02-11T10:29:34;9.00;99.90
9762;DHT22;4920;49.594;11.022;2023-02-11T10:32:11;9.10;99.90
9762;DHT22;4920;49.594;11.022;2023-02-11T10:34:43;9.10;99.90
9762;DHT22;4920;49.594;11.022;2023-02-11T10:37:12;9.10;99.90
9762;DHT22;4920;49.594;11.022;2023-02-11T10:39:42;9.10;99.90
9762;DHT22;4920;49.594;11.022;2023-02-11T10:42:11;9.10;99.90
9762;DHT22;4920;49.594;11.022;2023-02-11T10:44:54;8.90;99.90
9762;DHT22;4920;49.594;11.022;2023-02-11T10:47:27;8.70;99.90
9762;DHT22;4920;49.594;11.022;2023-02-11T10:49:59;8.60;99.90
9762;DHT22;4920;49.594;11.022;2023-02-11T10:52:30;8.50;99.90
9762;DHT22;4920;49.594;11.022;2023-02-11T10:55:05;8.40;99.90
9762;DHT22;4920;49.594;11.022;2023-02-11T10:57:36;8.40;99.90
9762;DHT22;4920;49.594;11.022;2023-02-11T11:00:34;8.40;99.90
9762;DHT22;4920;49.594;11.022;2023-02-11T11:03:16;8.40;99.90
9762;DHT22;4920;49.594;11.022;2023-02-11T11:05:48;8.50;99.90
9762;DHT22;4920;49.594;11.022;2023-02-11T11:08:18;8.50;99.90
9762;DHT22;4920;49.594;11.022;2023-02-11T11:10:48;8.50;99.90
9762;DHT22;4920;49.594;11.022;2023-02-11T11:13:31;8.60;99.90
9762;DHT22;4920;49.594;11.022;2023-02-11T11:19:19;8.70;99.90
9762;DHT22;4920;49.594;11.022;2023-02-11T11:21:49;8.90;99.90
9762;DHT22;4920;49.594;11.022;2023-02-11T11:24:21;9.00;99.90
9762;DHT22;4920;49.594;11.022;2023-02-11T11:26:54;9.00;99.90
9762;DHT22;4920;49.594;11.022;2023-02-11T11:29:28;8.90;99.90
9762;DHT22;4920;49.594;11.022;2023-02-11T11:31:59;8.90;99.90
9762;DHT22;4920;49.594;11.022;2023-02-11T11:34:37;8.80;99.90
9762;DHT22;4920;49.594;11.022;2023-02-11T11:37:13;8.60;99.90
9762;DHT22;4920;49.594;11.022;2023-02-11T11:39:54;8.60;99.90
9762;DHT22;4920;49.594;11.022;2023-02-11T11:42:26;8.50;99.90
9762;DHT22;4920;49.594;11.022;2023-02-11T11:44:57;8.50;99.90
9762;DHT22;4920;49.594;11.022;2023-02-11T11:47:35;8.50;99.90
9762;DHT22;4920;49.594;11.022;2023-02-11T11:50:22;8.50;99.90
9762;DHT22;4920;49.594;11.022;2023-02-11T11:52:58;8.50;99.90
9762;DHT22;4920;49.594;11.022;2023-02-11T11:55:34;8.50;99.90
9762;DHT22;4920;49.594;11.022;2023-02-11T11:58:11;8.50;99.90
9762;DHT22;4920;49.594;11.022;2023-02-11T12:00:49;8.40;99.90
9762;DHT22;4920;49.594;11.022;2023-02-11T12:03:42;8.40;99.90
9762;DHT22;4920;49.594;11.022;2023-02-11T12:06:26;8.40;99.90
9762;DHT22;4920;49.594;11.022;2023-02-11T12:09:08;8.40;99.90
9762;DHT22;4920;49.594;11.022;2023-02-11T12:14:42;8.30;99.90
9762;DHT22;4920;49.594;11.022;2023-02-11T12:17:27;8.30;99.90
9762;DHT22;4920;49.594;11.022;2023-02-11T12:20:29;8.30;99.90
9762;DHT22;4920;49.594;11.022;2023-02-11T12:23:29;8.20;99.90
9762;DHT22;4920;49.594;11.022;2023-02-11T12:26:06;8.20;99.90
9762;DHT22;4920;49.594;11.022;2023-02-11T12:28:41;8.20;99.90
9762;DHT22;4920;49.594;11.022;2023-02-11T12:31:26;8.20;99.90
9762;DHT22;4920;49.594;11.022;2023-02-11T12:34:26;8.30;99.90
9762;DHT22;4920;49.594;11.022;2023-02-11T12:37:08;8.30;99.90
9762;DHT22;4920;49.594;11.022;2023-02-11T12:39:43;8.40;99.90
9762;DHT22;4920;49.594;11.022;2023-02-11T12:42:36;8.40;99.90
9762;DHT22;4920;49.594;11.022;2023-02-11T12:45:41;8.40;99.90
9762;DHT22;4920;49.594;11.022;2023-02-11T12:48:21;8.50;99.90
9762;DHT22;4920;49.594;11.022;2023-02-11T12:50:56;8.50;99.90
9762;DHT22;4920;49.594;11.022;2023-02-11T12:53:40;8.50;99.90
9762;DHT22;4920;49.594;11.022;2023-02-11T12:56:18;8.40;99.90
9762;DHT22;4920;49.594;11.022;2023-02-11T12:58:50;8.20;99.90
9762;DHT22;4920;49.594;11.022;2023-02-11T13:01:23;8.00;99.90
9762;DHT22;4920;49.594;11.022;2023-02-11T13:03:56;8.00;99.90
9762;DHT22;4920;49.594;11.022;2023-02-11T13:06:32;7.90;99.90
9762;DHT22;4920;49.594;11.022;2023-02-11T13:09:04;7.80;99.90
9762;DHT22;4920;49.594;11.022;2023-02-11T13:11:38;7.80;99.90
9762;DHT22;4920;49.594;11.022;2023-02-11T13:14:14;7.80;99.90
9762;DHT22;4920;49.594;11.022;2023-02-11T13:16:45;7.70;99.90
9762;DHT22;4920;49.594;11.022;2023-02-11T13:19:20;7.70;99.90
9762;DHT22;4920;49.594;11.022;2023-02-11T13:22:01;7.70;99.90
9762;DHT22;4920;49.594;11.022;2023-02-11T13:24:39;7.60;99.90
9762;DHT22;4920;49.594;11.022;2023-02-11T13:27:23;7.60;99.90
9762;DHT22;4920;49.594;11.022;2023-02-11T13:30:17;7.50;99.90
9762;DHT22;4920;49.594;11.022;2023-02-11T13:36:12;7.40;99.90
9762;DHT22;4920;49.594;11.022;2023-02-11T13:38:51;7.50;99.90
9762;DHT22;4920;49.594;11.022;2023-02-11T13:41:25;7.50;99.90
9762;DHT22;4920;49.594;11.022;2023-02-11T13:44:05;7.60;99.90
9762;DHT22;4920;49.594;11.022;2023-02-11T13:46:51;7.80;99.90
9762;DHT22;4920;49.594;11.022;2023-02-11T13:49:24;7.90;99.90
9762;DHT22;4920;49.594;11.022;2023-02-11T13:51:53;7.90;99.90
9762;DHT22;4920;49.594;11.022;2023-02-11T13:54:27;7.90;99.90
9762;DHT22;4920;49.594;11.022;2023-02-11T13:57:33;7.80;99.90
9762;DHT22;4920;49.594;11.022;2023-02-11T14:03:24;7.50;99.90
9762;DHT22;4920;49.594;11.022;2023-02-11T14:06:14;7.50;99.90
9762;DHT22;4920;49.594;11.022;2023-02-11T14:12:22;7.50;99.90
9762;DHT22;4920;49.594;11.022;2023-02-11T14:15:14;7.50;99.90
9762;DHT22;4920;49.594;11.022;2023-02-11T14:17:44;7.50;99.90
9762;DHT22;4920;49.594;11.022;2023-02-11T14:20:34;7.50;99.90
9762;DHT22;4920;49.594;11.022;2023-02-11T14:23:05;7.50;99.90
9762;DHT22;4920;49.594;11.022;2023-02-11T14:25:35;7.50;99.90
9762;DHT22;4920;49.594;11.022;2023-02-11T14:28:13;7.40;99.90
9762;DHT22;4920;49.594;11.022;2023-02-11T14:30:49;7.40;99.90
9762;DHT22;4920;49.594;11.022;2023-02-11T14:33:37;7.50;99.90
9762;DHT22;4920;49.594;11.022;2023-02-11T14:36:18;7.60;99.90
9762;DHT22;4920;49.594;11.022;2023-02-11T14:38:58;7.60;99.90
9762;DHT22;4920;49.594;11.022;2023-02-11T14:41:34;7.60;99.90
9762;DHT22;4920;49.594;11.022;2023-02-11T14:44:10;7.50;99.90
9762;DHT22;4920;49.594;11.022;2023-02-11T14:46:43;7.30;99.90
9762;DHT22;4920;49.594;11.022;2023-02-11T14:49:20;7.20;99.90
9762;DHT22;4920;49.594;11.022;2023-02-11T14:51:53;7.00;99.90
9762;DHT22;4920;49.594;11.022;2023-02-11T14:54:26;7.00;99.90
9762;DHT22;4920;49.594;11.022;2023-02-11T14:57:13;6.90;99.90
9762;DHT22;4920;49.594;11.022;2023-02-11T14:59:54;6.90;99.90
9762;DHT22;4920;49.594;11.022;2023-02-11T15:02:28;6.90;99.90
9762;DHT22;4920;49.594;11.022;2023-02-11T15:05:13;6.90;99.90
9762;DHT22;4920;49.594;11.022;2023-02-11T15:07:45;6.90;99.90
9762;DHT22;4920;49.594;11.022;2023-02-11T15:10:17;6.80;99.90
9762;DHT22;4920;49.594;11.022;2023-02-11T15:12:48;6.80;99.90
9762;DHT22;4920;49.594;11.022;2023-02-11T15:15:18;6.80;99.90
9762;DHT22;4920;49.594;11.022;2023-02-11T15:17:47;6.70;99.90
9762;DHT22;4920;49.594;11.022;2023-02-11T15:20:19;6.70;99.90
9762;DHT22;4920;49.594;11.022;2023-02-11T15:22:53;6.60;99.90
9762;DHT22;4920;49.594;11.022;2023-02-11T15:25:23;6.60;99.90
9762;DHT22;4920;49.594;11.022;2023-02-11T15:27:55;6.60;99.90
9762;DHT22;4920;49.594;11.022;2023-02-11T15:30:29;6.50;99.90
9762;DHT22;4920;49.594;11.022;2023-02-11T15:33:01;6.50;99.90
9762;DHT22;4920;49.594;11.022;2023-02-11T15:35:33;6.50;99.90
9762;DHT22;4920;49.594;11.022;2023-02-11T15:38:03;6.60;99.90
9762;DHT22;4920;49.594;11.022;2023-02-11T15:40:34;6.50;99.90
9762;DHT22;4920;49.594;11.022;2023-02-11T15:43:04;6.60;99.90
9762;DHT22;4920;49.594;11.022;2023-02-11T15:45:39;6.60;99.90
9762;DHT22;4920;49.594;11.022;2023-02-11T15:48:12;6.60;99.90
9762;DHT22;4920;49.594;11.022;2023-02-11T15:50:48;6.60;99.90
9762;DHT22;4920;49.594;11.022;2023-02-11T15:53:23;6.60;99.90
9762;DHT22;4920;49.594;11.022;2023-02-11T15:56:01;6.60;99.90
9762;DHT22;4920;49.594;11.022;2023-02-11T15:58:35;6.60;99.90
9762;DHT22;4920;49.594;11.022;2023-02-11T16:01:06;6.60;99.90
9762;DHT22;4920;49.594;11.022;2023-02-11T16:03:36;6.60;99.90
9762;DHT22;4920;49.594;11.022;2023-02-11T16:06:15;6.60;99.90
9762;DHT22;4920;49.594;11.022;2023-02-11T16:08:56;6.60;99.90
9762;DHT22;4920;49.594;11.022;2023-02-11T16:11:26;6.60;99.90
9762;DHT22;4920;49.594;11.022;2023-02-11T16:13:57;6.60;99.90
9762;DHT22;4920;49.594;11.022;2023-02-11T16:16:34;6.60;99.90
9762;DHT22;4920;49.594;11.022;2023-02-11T16:19:04;6.60;99.90
9762;DHT22;4920;49.594;11.022;2023-02-11T16:21:34;6.60;99.90
9762;DHT22;4920;49.594;11.022;2023-02-11T16:24:06;6.60;99.90
9762;DHT22;4920;49.594;11.022;2023-02-11T16:26:37;6.50;99.90
9762;DHT22;4920;49.594;11.022;2023-02-11T16:29:10;6.50;99.90
9762;DHT22;4920;49.594;11.022;2023-02-11T16:31:42;6.50;99.90
9762;DHT22;4920;49.594;11.022;2023-02-11T16:34:14;6.50;99.90
9762;DHT22;4920;49.594;11.022;2023-02-11T16:36:43;6.40;99.90
9762;DHT22;4920;49.594;11.022;2023-02-11T16:39:12;6.40;99.90
9762;DHT22;4920;49.594;11.022;2023-02-11T16:41:41;6.40;99.90
9762;DHT22;4920;49.594;11.022;2023-02-11T16:44:10;6.40;99.90
9762;DHT22;4920;49.594;11.022;2023-02-11T16:46:38;6.30;99.90
9762;DHT22;4920;49.594;11.022;2023-02-11T16:49:13;6.30;99.90
9762;DHT22;4920;49.594;11.022;2023-02-11T16:51:44;6.30;99.90
9762;DHT22;4920;49.594;11.022;2023-02-11T16:54:16;6.30;99.90
9762;DHT22;4920;49.594;11.022;2023-02-11T16:56:45;6.30;99.90
9762;DHT22;4920;49.594;11.022;2023-02-11T16:59:14;6.30;99.90
9762;DHT22;4920;49.594;11.022;2023-02-11T17:01:45;6.30;99.90
9762;DHT22;4920;49.594;11.022;2023-02-11T17:04:19;6.30;99.90
9762;DHT22;4920;49.594;11.022;2023-02-11T17:06:48;6.30;99.90